sensor_id;sensor_type;location;lat;lon;timestamp;P1;durP1;ratioP1;P2;durP2;ratioP2
22152;SDS011;11242;50.536;12.688;2023-05-10T00:00:36;8.88;;;5.20;;
22152;SDS011;11242;50.536;12.688;2023-05-10T00:03:02;6.97;;;5.13;;
22152;SDS011;11242;50.536;12.688;2023-05-10T00:05:29;9.20;;;5.03;;
22152;SDS011;11242;50.536;12.688;2023-05-10T00:07:55;6.15;;;5.45;;
22152;SDS011;11242;50.536;12.688;2023-05-10T00:10:21;5.90;;;5.30;;
22152;SDS011;11242;50.536;12.688;2023-05-10T00:12:47;5.88;;;5.07;;
22152;SDS011;11242;50.536;12.688;2023-05-10T00:15:12;6.25;;;5.47;;
22152;SDS011;11242;50.536;12.688;2023-05-10T00:17:38;7.43;;;5.43;;
22152;SDS011;11242;50.536;12.688;2023-05-10T00:20:03;6.88;;;5.80;;
22152;SDS011;11242;50.536;12.688;2023-05-10T00:22:30;6.65;;;5.60;;
22152;SDS011;11242;50.536;12.688;2023-05-10T00:24:56;9.00;;;5.60;;
22152;SDS011;11242;50.536;12.688;2023-05-10T00:27:22;5.63;;;5.03;;
22152;SDS011;11242;50.536;12.688;2023-05-10T00:29:48;6.05;;;5.32;;
22152;SDS011;11242;50.536;12.688;2023-05-10T00:32:13;6.50;;;5.30;;
22152;SDS011;11242;50.536;12.688;2023-05-10T00:34:39;7.43;;;5.55;;
22152;SDS011;11242;50.536;12.688;2023-05-10T00:37:04;6.78;;;5.35;;
22152;SDS011;11242;50.536;12.688;2023-05-10T00:39:31;7.88;;;5.70;;
22152;SDS011;11242;50.536;12.688;2023-05-10T00:41:56;7.18;;;5.47;;
22152;SDS011;11242;50.536;12.688;2023-05-10T00:44:22;7.35;;;5.50;;
22152;SDS011;11242;50.536;12.688;2023-05-10T00:46:48;5.82;;;5.10;;
22152;SDS011;11242;50.536;12.688;2023-05-10T00:49:14;7.80;;;5.50;;
22152;SDS011;11242;50.536;12.688;2023-05-10T00:51:41;8.68;;;5.63;;
22152;SDS011;11242;50.536;12.688;2023-05-10T00:54:08;6.20;;;5.60;;
22152;SDS011;11242;50.536;12.688;2023-05-10T00:56:36;7.90;;;5.50;;
22152;SDS011;11242;50.536;12.688;2023-05-10T00:59:02;8.65;;;5.78;;
22152;SDS011;11242;50.536;12.688;2023-05-10T01:01:28;8.07;;;5.47;;
22152;SDS011;11242;50.536;12.688;2023-05-10T01:03:54;6.95;;;5.40;;
22152;SDS011;11242;50.536;12.688;2023-05-10T01:06:20;9.23;;;6.03;;
22152;SDS011;11242;50.536;12.688;2023-05-10T01:08:45;8.90;;;5.60;;
22152;SDS011;11242;50.536;12.688;2023-05-10T01:11:12;7.47;;;6.07;;
22152;SDS011;11242;50.536;12.688;2023-05-10T01:13:39;9.90;;;6.85;;
22152;SDS011;11242;50.536;12.688;2023-05-10T01:16:07;7.43;;;6.28;;
22152;SDS011;11242;50.536;12.688;2023-05-10T01:18:36;8.32;;;5.75;;
22152;SDS011;11242;50.536;12.688;2023-05-10T01:21:09;6.97;;;6.28;;
22152;SDS011;11242;50.536;12.688;2023-05-10T01:26:37;7.80;;;6.13;;
22152;SDS011;11242;50.536;12.688;2023-05-10T01:29:24;7.47;;;5.78;;
22152;SDS011;11242;50.536;12.688;2023-05-10T01:32:38;6.72;;;5.85;;
22152;SDS011;11242;50.536;12.688;2023-05-10T01:35:26;6.40;;;5.80;;
22152;SDS011;11242;50.536;12.688;2023-05-10T01:40:37;7.50;;;6.22;;
22152;SDS011;11242;50.536;12.688;2023-05-10T01:43:11;7.18;;;6.40;;
22152;SDS011;11242;50.536;12.688;2023-05-10T01:45:50;8.57;;;6.43;;
22152;SDS011;11242;50.536;12.688;2023-05-10T01:48:35;6.40;;;5.55;;
22152;SDS011;11242;50.536;12.688;2023-05-10T01:51:05;9.68;;;6.13;;
22152;SDS011;11242;50.536;12.688;2023-05-10T01:53:31;7.03;;;6.22;;
22152;SDS011;11242;50.536;12.688;2023-05-10T01:56:01;7.40;;;6.35;;
22152;SDS011;11242;50.536;12.688;2023-05-10T01:58:29;7.63;;;5.55;;
22152;SDS011;11242;50.536;12.688;2023-05-10T02:00:58;7.10;;;5.90;;
22152;SDS011;11242;50.536;12.688;2023-05-10T02:03:26;7.72;;;6.10;;
22152;SDS011;11242;50.536;12.688;2023-05-10T02:05:53;7.38;;;6.15;;
22152;SDS011;11242;50.536;12.688;2023-05-10T02:08:21;6.93;;;6.00;;
22152;SDS011;11242;50.536;12.688;2023-05-10T02:10:47;6.03;;;5.43;;
22152;SDS011;11242;50.536;12.688;2023-05-10T02:13:15;7.40;;;5.63;;
22152;SDS011;11242;50.536;12.688;2023-05-10T02:15:42;10.00;;;6.18;;
22152;SDS011;11242;50.536;12.688;2023-05-10T02:18:12;8.13;;;6.25;;
22152;SDS011;11242;50.536;12.688;2023-05-10T02:20:38;7.90;;;6.30;;
22152;SDS011;11242;50.536;12.688;2023-05-10T02:23:04;7.43;;;5.90;;
22152;SDS011;11242;50.536;12.688;2023-05-10T02:25:31;7.03;;;6.32;;
22152;SDS011;11242;50.536;12.688;2023-05-10T02:27:57;10.35;;;6.15;;
22152;SDS011;11242;50.536;12.688;2023-05-10T02:30:26;8.77;;;6.35;;
22152;SDS011;11242;50.536;12.688;2023-05-10T02:32:52;8.88;;;6.53;;
22152;SDS011;11242;50.536;12.688;2023-05-10T02:35:18;10.43;;;6.72;;
22152;SDS011;11242;50.536;12.688;2023-05-10T02:37:45;8.02;;;6.82;;
22152;SDS011;11242;50.536;12.688;2023-05-10T02:40:11;9.13;;;7.13;;
22152;SDS011;11242;50.536;12.688;2023-05-10T02:42:38;11.40;;;6.88;;
22152;SDS011;11242;50.536;12.688;2023-05-10T02:45:07;9.82;;;6.72;;
22152;SDS011;11242;50.536;12.688;2023-05-10T02:47:36;8.75;;;6.95;;
22152;SDS011;11242;50.536;12.688;2023-05-10T02:50:02;11.85;;;7.25;;
22152;SDS011;11242;50.536;12.688;2023-05-10T02:52:30;8.32;;;7.15;;
22152;SDS011;11242;50.536;12.688;2023-05-10T02:55:12;11.30;;;7.15;;
22152;SDS011;11242;50.536;12.688;2023-05-10T02:57:42;7.93;;;6.63;;
22152;SDS011;11242;50.536;12.688;2023-05-10T03:00:13;8.90;;;6.50;;
22152;SDS011;11242;50.536;12.688;2023-05-10T03:02:39;9.57;;;6.57;;
22152;SDS011;11242;50.536;12.688;2023-05-10T03:05:04;8.50;;;6.68;;
22152;SDS011;11242;50.536;12.688;2023-05-10T03:07:30;8.05;;;6.32;;
22152;SDS011;11242;50.536;12.688;2023-05-10T03:09:57;10.82;;;6.25;;
22152;SDS011;11242;50.536;12.688;2023-05-10T03:18:09;11.00;;;6.40;;
22152;SDS011;11242;50.536;12.688;2023-05-10T03:20:43;8.65;;;6.82;;
22152;SDS011;11242;50.536;12.688;2023-05-10T03:23:21;8.35;;;5.97;;
22152;SDS011;11242;50.536;12.688;2023-05-10T03:25:52;7.07;;;5.65;;
22152;SDS011;11242;50.536;12.688;2023-05-10T03:28:18;6.38;;;5.78;;
22152;SDS011;11242;50.536;12.688;2023-05-10T03:30:46;10.57;;;6.07;;
22152;SDS011;11242;50.536;12.688;2023-05-10T03:33:12;6.95;;;6.28;;
22152;SDS011;11242;50.536;12.688;2023-05-10T03:35:41;7.00;;;6.30;;
22152;SDS011;11242;50.536;12.688;2023-05-10T03:38:06;7.10;;;6.30;;
22152;SDS011;11242;50.536;12.688;2023-05-10T03:40:32;8.82;;;6.80;;
22152;SDS011;11242;50.536;12.688;2023-05-10T03:42:58;6.60;;;5.60;;
22152;SDS011;11242;50.536;12.688;2023-05-10T03:45:25;6.55;;;5.85;;
22152;SDS011;11242;50.536;12.688;2023-05-10T03:47:50;7.05;;;5.90;;
22152;SDS011;11242;50.536;12.688;2023-05-10T03:50:16;7.00;;;5.55;;
22152;SDS011;11242;50.536;12.688;2023-05-10T03:52:43;7.65;;;5.85;;
22152;SDS011;11242;50.536;12.688;2023-05-10T03:55:09;6.30;;;5.55;;
22152;SDS011;11242;50.536;12.688;2023-05-10T03:57:36;6.38;;;5.78;;
22152;SDS011;11242;50.536;12.688;2023-05-10T04:00:02;6.68;;;5.28;;
22152;SDS011;11242;50.536;12.688;2023-05-10T04:02:39;7.05;;;5.60;;
22152;SDS011;11242;50.536;12.688;2023-05-10T04:05:06;8.18;;;5.72;;
22152;SDS011;11242;50.536;12.688;2023-05-10T04:07:32;7.97;;;5.97;;
22152;SDS011;11242;50.536;12.688;2023-05-10T04:09:57;11.90;;;7.00;;
22152;SDS011;11242;50.536;12.688;2023-05-10T04:12:23;11.80;;;9.05;;
22152;SDS011;11242;50.536;12.688;2023-05-10T04:14:49;11.15;;;8.48;;
22152;SDS011;11242;50.536;12.688;2023-05-10T04:17:14;13.10;;;7.28;;
22152;SDS011;11242;50.536;12.688;2023-05-10T04:19:40;9.55;;;6.60;;
22152;SDS011;11242;50.536;12.688;2023-05-10T04:22:05;7.07;;;6.38;;
22152;SDS011;11242;50.536;12.688;2023-05-10T04:24:31;7.22;;;6.50;;
22152;SDS011;11242;50.536;12.688;2023-05-10T04:26:56;6.75;;;6.15;;
22152;SDS011;11242;50.536;12.688;2023-05-10T04:29:22;9.82;;;6.40;;
22152;SDS011;11242;50.536;12.688;2023-05-10T04:31:48;7.28;;;6.45;;
22152;SDS011;11242;50.536;12.688;2023-05-10T04:34:13;10.00;;;6.18;;
22152;SDS011;11242;50.536;12.688;2023-05-10T04:36:39;7.82;;;6.15;;
22152;SDS011;11242;50.536;12.688;2023-05-10T04:39:05;6.85;;;5.90;;
22152;SDS011;11242;50.536;12.688;2023-05-10T04:41:31;9.52;;;5.95;;
22152;SDS011;11242;50.536;12.688;2023-05-10T04:43:56;8.18;;;5.63;;
22152;SDS011;11242;50.536;12.688;2023-05-10T04:46:22;5.95;;;5.35;;
22152;SDS011;11242;50.536;12.688;2023-05-10T04:48:47;7.65;;;5.20;;
22152;SDS011;11242;50.536;12.688;2023-05-10T04:51:13;8.98;;;5.50;;
22152;SDS011;11242;50.536;12.688;2023-05-10T04:53:38;11.15;;;5.78;;
22152;SDS011;11242;50.536;12.688;2023-05-10T04:56:04;7.25;;;5.65;;
22152;SDS011;11242;50.536;12.688;2023-05-10T04:58:30;10.75;;;5.50;;
22152;SDS011;11242;50.536;12.688;2023-05-10T05:00:56;6.50;;;5.38;;
22152;SDS011;11242;50.536;12.688;2023-05-10T05:03:21;10.63;;;6.55;;
22152;SDS011;11242;50.536;12.688;2023-05-10T05:05:47;8.77;;;7.53;;
22152;SDS011;11242;50.536;12.688;2023-05-10T05:08:13;7.18;;;5.82;;
22152;SDS011;11242;50.536;12.688;2023-05-10T05:10:39;6.25;;;5.10;;
22152;SDS011;11242;50.536;12.688;2023-05-10T05:13:04;5.82;;;5.18;;
22152;SDS011;11242;50.536;12.688;2023-05-10T05:15:30;6.63;;;5.43;;
22152;SDS011;11242;50.536;12.688;2023-05-10T05:17:56;6.90;;;5.47;;
22152;SDS011;11242;50.536;12.688;2023-05-10T05:20:22;6.25;;;5.30;;
22152;SDS011;11242;50.536;12.688;2023-05-10T05:22:47;6.50;;;5.60;;
22152;SDS011;11242;50.536;12.688;2023-05-10T05:25:13;7.95;;;5.68;;
22152;SDS011;11242;50.536;12.688;2023-05-10T05:27:40;6.50;;;5.43;;
22152;SDS011;11242;50.536;12.688;2023-05-10T05:30:05;7.88;;;5.57;;
22152;SDS011;11242;50.536;12.688;2023-05-10T05:32:31;7.78;;;5.28;;
22152;SDS011;11242;50.536;12.688;2023-05-10T05:34:57;6.28;;;5.32;;
22152;SDS011;11242;50.536;12.688;2023-05-10T05:37:23;6.55;;;5.40;;
22152;SDS011;11242;50.536;12.688;2023-05-10T05:39:49;8.25;;;6.13;;
22152;SDS011;11242;50.536;12.688;2023-05-10T05:42:15;7.28;;;5.72;;
22152;SDS011;11242;50.536;12.688;2023-05-10T05:44:42;9.07;;;6.47;;
22152;SDS011;11242;50.536;12.688;2023-05-10T05:47:08;13.07;;;5.78;;
22152;SDS011;11242;50.536;12.688;2023-05-10T05:49:34;6.82;;;6.10;;
22152;SDS011;11242;50.536;12.688;2023-05-10T05:52:00;10.63;;;6.88;;
22152;SDS011;11242;50.536;12.688;2023-05-10T05:54:26;9.27;;;6.47;;
22152;SDS011;11242;50.536;12.688;2023-05-10T05:56:59;7.22;;;5.78;;
22152;SDS011;11242;50.536;12.688;2023-05-10T05:59:25;6.00;;;5.40;;
22152;SDS011;11242;50.536;12.688;2023-05-10T06:01:51;8.90;;;5.55;;
22152;SDS011;11242;50.536;12.688;2023-05-10T06:04:17;10.05;;;5.60;;
22152;SDS011;11242;50.536;12.688;2023-05-10T06:06:43;8.15;;;5.30;;
22152;SDS011;11242;50.536;12.688;2023-05-10T06:09:08;7.32;;;5.30;;
22152;SDS011;11242;50.536;12.688;2023-05-10T06:11:34;6.70;;;6.03;;
22152;SDS011;11242;50.536;12.688;2023-05-10T06:14:01;7.75;;;5.80;;
22152;SDS011;11242;50.536;12.688;2023-05-10T06:16:28;6.47;;;5.78;;
22152;SDS011;11242;50.536;12.688;2023-05-10T06:18:54;6.13;;;5.50;;
22152;SDS011;11242;50.536;12.688;2023-05-10T06:21:20;5.82;;;5.20;;
22152;SDS011;11242;50.536;12.688;2023-05-10T06:23:46;6.70;;;5.32;;
22152;SDS011;11242;50.536;12.688;2023-05-10T06:26:11;7.72;;;5.93;;
22152;SDS011;11242;50.536;12.688;2023-05-10T06:28:38;12.50;;;5.50;;
22152;SDS011;11242;50.536;12.688;2023-05-10T06:31:04;8.77;;;5.78;;
22152;SDS011;11242;50.536;12.688;2023-05-10T06:33:30;6.85;;;5.70;;
22152;SDS011;11242;50.536;12.688;2023-05-10T06:35:56;6.22;;;5.60;;
22152;SDS011;11242;50.536;12.688;2023-05-10T06:38:22;6.00;;;5.40;;
22152;SDS011;11242;50.536;12.688;2023-05-10T06:40:47;6.25;;;5.65;;
22152;SDS011;11242;50.536;12.688;2023-05-10T06:43:13;6.55;;;5.10;;
22152;SDS011;11242;50.536;12.688;2023-05-10T06:45:39;6.43;;;5.38;;
22152;SDS011;11242;50.536;12.688;2023-05-10T06:48:04;5.72;;;4.82;;
22152;SDS011;11242;50.536;12.688;2023-05-10T06:50:30;7.30;;;5.18;;
22152;SDS011;11242;50.536;12.688;2023-05-10T06:52:56;6.15;;;5.35;;
22152;SDS011;11242;50.536;12.688;2023-05-10T06:55:21;6.05;;;5.45;;
22152;SDS011;11242;50.536;12.688;2023-05-10T06:57:47;6.25;;;5.60;;
22152;SDS011;11242;50.536;12.688;2023-05-10T07:00:13;6.45;;;5.20;;
22152;SDS011;11242;50.536;12.688;2023-05-10T07:02:39;5.97;;;5.28;;
22152;SDS011;11242;50.536;12.688;2023-05-10T07:05:05;8.20;;;5.95;;
22152;SDS011;11242;50.536;12.688;2023-05-10T07:07:31;6.60;;;5.47;;
22152;SDS011;11242;50.536;12.688;2023-05-10T07:09:56;7.38;;;5.60;;
22152;SDS011;11242;50.536;12.688;2023-05-10T07:12:23;5.43;;;4.93;;
22152;SDS011;11242;50.536;12.688;2023-05-10T07:14:49;5.68;;;5.13;;
22152;SDS011;11242;50.536;12.688;2023-05-10T07:17:14;7.15;;;5.80;;
22152;SDS011;11242;50.536;12.688;2023-05-10T07:19:40;6.10;;;5.50;;
22152;SDS011;11242;50.536;12.688;2023-05-10T07:22:05;8.43;;;6.22;;
22152;SDS011;11242;50.536;12.688;2023-05-10T07:24:32;9.80;;;6.22;;
22152;SDS011;11242;50.536;12.688;2023-05-10T07:26:58;7.75;;;6.28;;
22152;SDS011;11242;50.536;12.688;2023-05-10T07:29:23;7.78;;;6.38;;
22152;SDS011;11242;50.536;12.688;2023-05-10T07:31:49;9.73;;;6.88;;
22152;SDS011;11242;50.536;12.688;2023-05-10T07:34:15;8.57;;;6.90;;
22152;SDS011;11242;50.536;12.688;2023-05-10T07:36:40;9.70;;;7.68;;
22152;SDS011;11242;50.536;12.688;2023-05-10T07:39:06;9.35;;;7.07;;
22152;SDS011;11242;50.536;12.688;2023-05-10T07:41:32;9.57;;;7.28;;
22152;SDS011;11242;50.536;12.688;2023-05-10T07:43:58;11.52;;;7.80;;
22152;SDS011;11242;50.536;12.688;2023-05-10T07:46:23;8.63;;;7.75;;
22152;SDS011;11242;50.536;12.688;2023-05-10T07:48:49;8.95;;;7.85;;
22152;SDS011;11242;50.536;12.688;2023-05-10T07:51:14;8.00;;;7.22;;
22152;SDS011;11242;50.536;12.688;2023-05-10T07:53:40;11.02;;;8.35;;
22152;SDS011;11242;50.536;12.688;2023-05-10T07:56:22;9.20;;;7.63;;
22152;SDS011;11242;50.536;12.688;2023-05-10T07:58:50;9.25;;;8.18;;
22152;SDS011;11242;50.536;12.688;2023-05-10T08:01:16;9.50;;;8.20;;
22152;SDS011;11242;50.536;12.688;2023-05-10T08:03:42;8.90;;;7.88;;
22152;SDS011;11242;50.536;12.688;2023-05-10T08:06:07;9.77;;;8.32;;
22152;SDS011;11242;50.536;12.688;2023-05-10T08:08:33;11.23;;;7.90;;
22152;SDS011;11242;50.536;12.688;2023-05-10T08:10:59;9.32;;;7.78;;
22152;SDS011;11242;50.536;12.688;2023-05-10T08:13:24;9.43;;;8.02;;
22152;SDS011;11242;50.536;12.688;2023-05-10T08:15:50;9.38;;;8.35;;
22152;SDS011;11242;50.536;12.688;2023-05-10T08:18:17;12.93;;;8.32;;
22152;SDS011;11242;50.536;12.688;2023-05-10T08:20:43;8.68;;;7.85;;
22152;SDS011;11242;50.536;12.688;2023-05-10T08:23:09;9.48;;;8.48;;
22152;SDS011;11242;50.536;12.688;2023-05-10T08:25:34;8.85;;;7.95;;
22152;SDS011;11242;50.536;12.688;2023-05-10T08:28:00;8.75;;;7.70;;
22152;SDS011;11242;50.536;12.688;2023-05-10T08:30:26;9.45;;;7.35;;
22152;SDS011;11242;50.536;12.688;2023-05-10T08:32:51;8.57;;;7.68;;
22152;SDS011;11242;50.536;12.688;2023-05-10T08:35:17;10.95;;;8.00;;
22152;SDS011;11242;50.536;12.688;2023-05-10T08:37:42;9.98;;;7.68;;
22152;SDS011;11242;50.536;12.688;2023-05-10T08:40:08;9.07;;;7.97;;
22152;SDS011;11242;50.536;12.688;2023-05-10T08:42:37;10.82;;;7.70;;
22152;SDS011;11242;50.536;12.688;2023-05-10T08:45:06;8.75;;;7.38;;
22152;SDS011;11242;50.536;12.688;2023-05-10T08:47:34;8.73;;;7.60;;
22152;SDS011;11242;50.536;12.688;2023-05-10T08:50:02;8.68;;;7.22;;
22152;SDS011;11242;50.536;12.688;2023-05-10T08:52:28;9.55;;;7.47;;
22152;SDS011;11242;50.536;12.688;2023-05-10T08:54:55;9.48;;;8.35;;
22152;SDS011;11242;50.536;12.688;2023-05-10T08:57:21;10.05;;;9.00;;
22152;SDS011;11242;50.536;12.688;2023-05-10T08:59:47;13.10;;;8.45;;
22152;SDS011;11242;50.536;12.688;2023-05-10T09:02:12;9.43;;;8.30;;
22152;SDS011;11242;50.536;12.688;2023-05-10T09:04:38;8.68;;;7.88;;
22152;SDS011;11242;50.536;12.688;2023-05-10T09:07:04;9.43;;;7.47;;
22152;SDS011;11242;50.536;12.688;2023-05-10T09:09:31;12.30;;;11.00;;
22152;SDS011;11242;50.536;12.688;2023-05-10T09:11:56;13.23;;;9.75;;
22152;SDS011;11242;50.536;12.688;2023-05-10T09:14:23;10.70;;;7.95;;
22152;SDS011;11242;50.536;12.688;2023-05-10T09:16:49;11.10;;;9.57;;
22152;SDS011;11242;50.536;12.688;2023-05-10T09:19:15;11.93;;;7.72;;
22152;SDS011;11242;50.536;12.688;2023-05-10T09:21:41;9.80;;;8.30;;
22152;SDS011;11242;50.536;12.688;2023-05-10T09:24:07;9.32;;;8.32;;
22152;SDS011;11242;50.536;12.688;2023-05-10T09:26:34;8.75;;;7.90;;
22152;SDS011;11242;50.536;12.688;2023-05-10T09:29:00;8.07;;;7.28;;
22152;SDS011;11242;50.536;12.688;2023-05-10T09:31:43;8.75;;;7.63;;
22152;SDS011;11242;50.536;12.688;2023-05-10T09:34:18;7.82;;;7.03;;
22152;SDS011;11242;50.536;12.688;2023-05-10T09:36:52;7.80;;;6.93;;
22152;SDS011;11242;50.536;12.688;2023-05-10T09:39:18;8.15;;;7.35;;
22152;SDS011;11242;50.536;12.688;2023-05-10T09:41:44;8.63;;;7.28;;
22152;SDS011;11242;50.536;12.688;2023-05-10T09:44:10;9.70;;;8.18;;
22152;SDS011;11242;50.536;12.688;2023-05-10T09:46:35;8.98;;;8.00;;
22152;SDS011;11242;50.536;12.688;2023-05-10T09:49:01;8.27;;;7.47;;
22152;SDS011;11242;50.536;12.688;2023-05-10T09:51:27;13.75;;;10.35;;
22152;SDS011;11242;50.536;12.688;2023-05-10T09:54:12;11.73;;;10.52;;
22152;SDS011;11242;50.536;12.688;2023-05-10T09:56:41;8.65;;;7.75;;
22152;SDS011;11242;50.536;12.688;2023-05-10T09:59:08;9.73;;;8.50;;
22152;SDS011;11242;50.536;12.688;2023-05-10T10:01:35;9.70;;;8.73;;
22152;SDS011;11242;50.536;12.688;2023-05-10T10:04:04;14.05;;;10.52;;
22152;SDS011;11242;50.536;12.688;2023-05-10T10:06:37;12.70;;;11.40;;
22152;SDS011;11242;50.536;12.688;2023-05-10T10:09:05;11.13;;;9.90;;
22152;SDS011;11242;50.536;12.688;2023-05-10T10:11:31;10.90;;;9.82;;
22152;SDS011;11242;50.536;12.688;2023-05-10T10:13:58;13.73;;;10.48;;
22152;SDS011;11242;50.536;12.688;2023-05-10T10:16:24;15.25;;;10.80;;
22152;SDS011;11242;50.536;12.688;2023-05-10T10:18:53;13.60;;;10.75;;
22152;SDS011;11242;50.536;12.688;2023-05-10T10:21:19;13.65;;;12.05;;
22152;SDS011;11242;50.536;12.688;2023-05-10T10:23:45;17.23;;;14.07;;
22152;SDS011;11242;50.536;12.688;2023-05-10T10:26:11;20.23;;;15.88;;
22152;SDS011;11242;50.536;12.688;2023-05-10T10:28:40;17.48;;;14.85;;
22152;SDS011;11242;50.536;12.688;2023-05-10T10:34:03;11.20;;;9.25;;
22152;SDS011;11242;50.536;12.688;2023-05-10T10:36:47;10.65;;;9.13;;
22152;SDS011;11242;50.536;12.688;2023-05-10T10:39:12;9.68;;;8.68;;
22152;SDS011;11242;50.536;12.688;2023-05-10T10:41:40;10.45;;;9.38;;
22152;SDS011;11242;50.536;12.688;2023-05-10T10:47:02;8.25;;;6.93;;
22152;SDS011;11242;50.536;12.688;2023-05-10T10:55:01;6.38;;;5.47;;
22152;SDS011;11242;50.536;12.688;2023-05-10T10:57:31;7.60;;;6.80;;
22152;SDS011;11242;50.536;12.688;2023-05-10T11:00:19;5.85;;;5.00;;
22152;SDS011;11242;50.536;12.688;2023-05-10T11:03:03;5.18;;;4.68;;
22152;SDS011;11242;50.536;12.688;2023-05-10T11:13:32;4.90;;;4.45;;
22152;SDS011;11242;50.536;12.688;2023-05-10T11:16:17;4.97;;;4.57;;
22152;SDS011;11242;50.536;12.688;2023-05-10T11:18:51;4.55;;;4.15;;
22152;SDS011;11242;50.536;12.688;2023-05-10T11:21:18;4.43;;;4.03;;
22152;SDS011;11242;50.536;12.688;2023-05-10T11:23:48;5.10;;;4.60;;
22152;SDS011;11242;50.536;12.688;2023-05-10T11:26:14;6.28;;;5.68;;
22152;SDS011;11242;50.536;12.688;2023-05-10T11:28:43;3.97;;;3.65;;
22152;SDS011;11242;50.536;12.688;2023-05-10T11:31:08;5.35;;;3.95;;
22152;SDS011;11242;50.536;12.688;2023-05-10T11:33:44;4.75;;;4.00;;
22152;SDS011;11242;50.536;12.688;2023-05-10T11:36:17;4.40;;;4.00;;
22152;SDS011;11242;50.536;12.688;2023-05-10T11:38:48;3.47;;;3.20;;
22152;SDS011;11242;50.536;12.688;2023-05-10T11:41:14;4.85;;;3.25;;
22152;SDS011;11242;50.536;12.688;2023-05-10T11:43:42;3.60;;;3.30;;
22152;SDS011;11242;50.536;12.688;2023-05-10T11:46:09;4.03;;;3.63;;
22152;SDS011;11242;50.536;12.688;2023-05-10T11:48:36;3.38;;;3.00;;
22152;SDS011;11242;50.536;12.688;2023-05-10T11:51:09;4.80;;;4.30;;
22152;SDS011;11242;50.536;12.688;2023-05-10T11:53:36;8.75;;;6.53;;
22152;SDS011;11242;50.536;12.688;2023-05-10T11:56:06;4.82;;;4.40;;
22152;SDS011;11242;50.536;12.688;2023-05-10T11:58:33;4.22;;;3.90;;
22152;SDS011;11242;50.536;12.688;2023-05-10T12:00:59;3.85;;;3.55;;
22152;SDS011;11242;50.536;12.688;2023-05-10T12:03:26;5.72;;;4.80;;
22152;SDS011;11242;50.536;12.688;2023-05-10T12:05:53;5.65;;;4.85;;
22152;SDS011;11242;50.536;12.688;2023-05-10T12:08:21;4.25;;;3.85;;
22152;SDS011;11242;50.536;12.688;2023-05-10T12:10:48;4.07;;;3.72;;
22152;SDS011;11242;50.536;12.688;2023-05-10T12:13:13;4.07;;;3.78;;
22152;SDS011;11242;50.536;12.688;2023-05-10T12:15:40;4.28;;;3.90;;
22152;SDS011;11242;50.536;12.688;2023-05-10T12:18:13;3.85;;;3.55;;
22152;SDS011;11242;50.536;12.688;2023-05-10T12:20:39;3.65;;;3.33;;
22152;SDS011;11242;50.536;12.688;2023-05-10T12:23:05;4.50;;;3.83;;
22152;SDS011;11242;50.536;12.688;2023-05-10T12:25:33;3.33;;;3.00;;
22152;SDS011;11242;50.536;12.688;2023-05-10T12:28:02;4.05;;;3.75;;
22152;SDS011;11242;50.536;12.688;2023-05-10T12:30:29;3.85;;;3.55;;
22152;SDS011;11242;50.536;12.688;2023-05-10T12:35:32;3.53;;;3.22;;
22152;SDS011;11242;50.536;12.688;2023-05-10T12:37:58;4.78;;;4.35;;
22152;SDS011;11242;50.536;12.688;2023-05-10T12:40:23;5.68;;;4.90;;
22152;SDS011;11242;50.536;12.688;2023-05-10T12:42:49;5.30;;;4.90;;
22152;SDS011;11242;50.536;12.688;2023-05-10T12:45:16;3.80;;;3.50;;
22152;SDS011;11242;50.536;12.688;2023-05-10T12:47:43;2.70;;;2.50;;
22152;SDS011;11242;50.536;12.688;2023-05-10T12:50:08;2.50;;;2.30;;
22152;SDS011;11242;50.536;12.688;2023-05-10T12:52:34;3.13;;;2.92;;
22152;SDS011;11242;50.536;12.688;2023-05-10T12:55:00;4.40;;;2.50;;
22152;SDS011;11242;50.536;12.688;2023-05-10T12:57:28;2.88;;;2.67;;
22152;SDS011;11242;50.536;12.688;2023-05-10T12:59:54;4.07;;;2.40;;
22152;SDS011;11242;50.536;12.688;2023-05-10T13:02:20;2.92;;;2.55;;
22152;SDS011;11242;50.536;12.688;2023-05-10T13:04:46;1.92;;;1.83;;
22152;SDS011;11242;50.536;12.688;2023-05-10T13:07:12;3.28;;;2.17;;
22152;SDS011;11242;50.536;12.688;2023-05-10T13:09:38;3.20;;;2.90;;
22152;SDS011;11242;50.536;12.688;2023-05-10T13:12:04;3.10;;;2.90;;
22152;SDS011;11242;50.536;12.688;2023-05-10T13:14:30;3.10;;;2.90;;
22152;SDS011;11242;50.536;12.688;2023-05-10T13:16:56;7.70;;;7.00;;
22152;SDS011;11242;50.536;12.688;2023-05-10T13:19:22;3.38;;;3.13;;
22152;SDS011;11242;50.536;12.688;2023-05-10T13:21:47;4.68;;;4.28;;
22152;SDS011;11242;50.536;12.688;2023-05-10T13:24:13;3.92;;;3.63;;
22152;SDS011;11242;50.536;12.688;2023-05-10T13:26:39;4.90;;;4.38;;
22152;SDS011;11242;50.536;12.688;2023-05-10T13:29:06;3.10;;;2.90;;
22152;SDS011;11242;50.536;12.688;2023-05-10T13:31:32;1.98;;;1.88;;
22152;SDS011;11242;50.536;12.688;2023-05-10T13:33:58;2.10;;;2.00;;
22152;SDS011;11242;50.536;12.688;2023-05-10T13:36:24;2.00;;;1.90;;
22152;SDS011;11242;50.536;12.688;2023-05-10T13:38:50;2.10;;;2.00;;
22152;SDS011;11242;50.536;12.688;2023-05-10T13:41:15;3.22;;;2.75;;
22152;SDS011;11242;50.536;12.688;2023-05-10T13:43:41;3.83;;;3.05;;
22152;SDS011;11242;50.536;12.688;2023-05-10T13:46:06;4.22;;;3.70;;
22152;SDS011;11242;50.536;12.688;2023-05-10T13:48:32;4.00;;;3.60;;
22152;SDS011;11242;50.536;12.688;2023-05-10T13:50:57;5.30;;;4.90;;
22152;SDS011;11242;50.536;12.688;2023-05-10T13:53:23;6.60;;;6.00;;
22152;SDS011;11242;50.536;12.688;2023-05-10T13:55:48;7.05;;;6.35;;
22152;SDS011;11242;50.536;12.688;2023-05-10T13:58:14;6.22;;;5.72;;
22152;SDS011;11242;50.536;12.688;2023-05-10T14:00:39;8.13;;;7.43;;
22152;SDS011;11242;50.536;12.688;2023-05-10T14:03:05;6.90;;;5.72;;
22152;SDS011;11242;50.536;12.688;2023-05-10T14:05:31;5.30;;;4.88;;
22152;SDS011;11242;50.536;12.688;2023-05-10T14:07:57;7.00;;;6.47;;
22152;SDS011;11242;50.536;12.688;2023-05-10T14:10:23;6.90;;;6.07;;
22152;SDS011;11242;50.536;12.688;2023-05-10T14:12:49;6.00;;;5.50;;
22152;SDS011;11242;50.536;12.688;2023-05-10T14:15:15;4.07;;;3.70;;
22152;SDS011;11242;50.536;12.688;2023-05-10T14:17:40;8.00;;;7.22;;
22152;SDS011;11242;50.536;12.688;2023-05-10T14:20:06;4.78;;;4.35;;
22152;SDS011;11242;50.536;12.688;2023-05-10T14:22:32;4.88;;;4.47;;
22152;SDS011;11242;50.536;12.688;2023-05-10T14:24:58;3.13;;;2.88;;
22152;SDS011;11242;50.536;12.688;2023-05-10T14:27:23;2.80;;;2.60;;
22152;SDS011;11242;50.536;12.688;2023-05-10T14:29:49;2.92;;;2.67;;
22152;SDS011;11242;50.536;12.688;2023-05-10T14:32:15;3.13;;;2.83;;
22152;SDS011;11242;50.536;12.688;2023-05-10T14:34:40;3.28;;;2.97;;
22152;SDS011;11242;50.536;12.688;2023-05-10T14:37:06;3.13;;;2.83;;
22152;SDS011;11242;50.536;12.688;2023-05-10T14:39:31;2.60;;;2.40;;
22152;SDS011;11242;50.536;12.688;2023-05-10T14:41:58;2.83;;;2.63;;
22152;SDS011;11242;50.536;12.688;2023-05-10T14:44:23;2.85;;;2.65;;
22152;SDS011;11242;50.536;12.688;2023-05-10T14:46:50;3.00;;;2.80;;
22152;SDS011;11242;50.536;12.688;2023-05-10T14:49:15;3.00;;;2.80;;
22152;SDS011;11242;50.536;12.688;2023-05-10T14:51:41;2.90;;;2.60;;
22152;SDS011;11242;50.536;12.688;2023-05-10T14:54:06;2.70;;;2.50;;
22152;SDS011;11242;50.536;12.688;2023-05-10T14:56:32;5.85;;;4.40;;
22152;SDS011;11242;50.536;12.688;2023-05-10T14:58:57;4.43;;;3.60;;
22152;SDS011;11242;50.536;12.688;2023-05-10T15:01:24;4.70;;;4.30;;
22152;SDS011;11242;50.536;12.688;2023-05-10T15:03:50;4.93;;;4.50;;
22152;SDS011;11242;50.536;12.688;2023-05-10T15:06:15;6.53;;;5.57;;